sensor_id;sensor_type;location;lat;lon;timestamp;P1;durP1;ratioP1;P2;durP2;ratioP2
70071;SDS011;57434;42.794;23.302;2023-04-28T00:00:06;8.40;;;3.00;;
70071;SDS011;57434;42.794;23.302;2023-04-28T00:01:09;7.93;;;3.35;;
70071;SDS011;57434;42.794;23.302;2023-04-28T00:02:10;6.65;;;3.38;;
70071;SDS011;57434;42.794;23.302;2023-04-28T00:03:12;6.47;;;3.35;;
70071;SDS011;57434;42.794;23.302;2023-04-28T00:04:14;5.85;;;2.60;;
70071;SDS011;57434;42.794;23.302;2023-04-28T00:05:17;6.97;;;2.85;;
70071;SDS011;57434;42.794;23.302;2023-04-28T00:06:19;8.48;;;3.70;;
70071;SDS011;57434;42.794;23.302;2023-04-28T00:07:20;8.43;;;3.60;;
70071;SDS011;57434;42.794;23.302;2023-04-28T00:08:22;8.07;;;3.40;;
70071;SDS011;57434;42.794;23.302;2023-04-28T00:09:24;6.88;;;3.10;;
70071;SDS011;57434;42.794;23.302;2023-04-28T00:10:26;7.10;;;3.27;;
70071;SDS011;57434;42.794;23.302;2023-04-28T00:11:28;6.47;;;3.15;;
70071;SDS011;57434;42.794;23.302;2023-04-28T00:12:30;8.75;;;3.25;;
70071;SDS011;57434;42.794;23.302;2023-04-28T00:13:32;6.70;;;3.30;;
70071;SDS011;57434;42.794;23.302;2023-04-28T00:14:34;6.18;;;3.03;;
70071;SDS011;57434;42.794;23.302;2023-04-28T00:15:35;5.43;;;2.90;;
70071;SDS011;57434;42.794;23.302;2023-04-28T00:16:37;7.35;;;3.53;;
70071;SDS011;57434;42.794;23.302;2023-04-28T00:17:39;5.47;;;2.83;;
70071;SDS011;57434;42.794;23.302;2023-04-28T00:18:41;7.43;;;3.35;;
70071;SDS011;57434;42.794;23.302;2023-04-28T00:19:43;9.68;;;3.35;;
70071;SDS011;57434;42.794;23.302;2023-04-28T00:20:45;6.80;;;3.10;;
70071;SDS011;57434;42.794;23.302;2023-04-28T00:21:47;8.10;;;3.25;;
70071;SDS011;57434;42.794;23.302;2023-04-28T00:22:49;6.70;;;3.03;;
70071;SDS011;57434;42.794;23.302;2023-04-28T00:23:50;6.50;;;2.97;;
70071;SDS011;57434;42.794;23.302;2023-04-28T00:24:52;7.07;;;3.30;;
70071;SDS011;57434;42.794;23.302;2023-04-28T00:25:54;8.38;;;3.35;;
70071;SDS011;57434;42.794;23.302;2023-04-28T00:26:56;6.68;;;3.28;;
70071;SDS011;57434;42.794;23.302;2023-04-28T00:27:58;6.20;;;3.00;;
70071;SDS011;57434;42.794;23.302;2023-04-28T00:29:00;6.68;;;3.03;;
70071;SDS011;57434;42.794;23.302;2023-04-28T00:30:02;7.05;;;2.78;;
70071;SDS011;57434;42.794;23.302;2023-04-28T00:31:11;6.87;;;3.10;;
70071;SDS011;57434;42.794;23.302;2023-04-28T00:32:15;6.35;;;3.05;;
70071;SDS011;57434;42.794;23.302;2023-04-28T00:33:17;6.47;;;3.03;;
70071;SDS011;57434;42.794;23.302;2023-04-28T00:34:19;6.65;;;2.75;;
70071;SDS011;57434;42.794;23.302;2023-04-28T00:35:21;9.15;;;3.67;;
70071;SDS011;57434;42.794;23.302;2023-04-28T00:36:23;6.97;;;3.22;;
70071;SDS011;57434;42.794;23.302;2023-04-28T00:37:25;6.82;;;3.28;;
70071;SDS011;57434;42.794;23.302;2023-04-28T00:38:27;8.05;;;3.75;;
70071;SDS011;57434;42.794;23.302;2023-04-28T00:39:29;7.45;;;3.53;;
70071;SDS011;57434;42.794;23.302;2023-04-28T00:40:34;6.80;;;3.40;;
70071;SDS011;57434;42.794;23.302;2023-04-28T00:41:39;7.10;;;3.37;;
70071;SDS011;57434;42.794;23.302;2023-04-28T00:42:41;9.25;;;3.13;;
70071;SDS011;57434;42.794;23.302;2023-04-28T00:43:44;10.05;;;3.50;;
70071;SDS011;57434;42.794;23.302;2023-04-28T00:44:49;7.28;;;2.83;;
70071;SDS011;57434;42.794;23.302;2023-04-28T00:45:51;7.43;;;3.42;;
70071;SDS011;57434;42.794;23.302;2023-04-28T00:46:53;6.97;;;3.60;;
70071;SDS011;57434;42.794;23.302;2023-04-28T00:47:56;8.52;;;3.83;;
70071;SDS011;57434;42.794;23.302;2023-04-28T00:49:00;9.00;;;3.88;;
70071;SDS011;57434;42.794;23.302;2023-04-28T00:50:03;8.88;;;4.05;;
70071;SDS011;57434;42.794;23.302;2023-04-28T00:51:06;8.93;;;4.50;;
70071;SDS011;57434;42.794;23.302;2023-04-28T00:52:08;7.70;;;4.27;;
70071;SDS011;57434;42.794;23.302;2023-04-28T00:53:11;9.82;;;3.40;;
70071;SDS011;57434;42.794;23.302;2023-04-28T00:54:13;6.60;;;3.63;;
70071;SDS011;57434;42.794;23.302;2023-04-28T00:55:15;7.65;;;3.33;;
70071;SDS011;57434;42.794;23.302;2023-04-28T00:56:17;7.00;;;3.47;;
70071;SDS011;57434;42.794;23.302;2023-04-28T00:57:20;14.13;;;6.00;;
70071;SDS011;57434;42.794;23.302;2023-04-28T00:58:22;148.10;;;53.83;;
70071;SDS011;57434;42.794;23.302;2023-04-28T00:59:25;382.42;;;133.15;;
70071;SDS011;57434;42.794;23.302;2023-04-28T01:00:27;316.92;;;110.35;;
70071;SDS011;57434;42.794;23.302;2023-04-28T01:01:29;212.95;;;75.28;;
70071;SDS011;57434;42.794;23.302;2023-04-28T01:02:31;86.90;;;24.27;;
70071;SDS011;57434;42.794;23.302;2023-04-28T01:03:34;53.67;;;14.40;;
70071;SDS011;57434;42.794;23.302;2023-04-28T01:04:37;32.88;;;8.18;;
70071;SDS011;57434;42.794;23.302;2023-04-28T01:05:40;22.67;;;6.43;;
70071;SDS011;57434;42.794;23.302;2023-04-28T01:06:42;16.08;;;4.75;;
70071;SDS011;57434;42.794;23.302;2023-04-28T01:07:45;14.13;;;5.20;;
70071;SDS011;57434;42.794;23.302;2023-04-28T01:08:47;16.25;;;4.53;;
70071;SDS011;57434;42.794;23.302;2023-04-28T01:09:50;7.50;;;3.20;;
70071;SDS011;57434;42.794;23.302;2023-04-28T01:10:52;7.97;;;3.35;;
70071;SDS011;57434;42.794;23.302;2023-04-28T01:11:53;8.50;;;4.07;;
70071;SDS011;57434;42.794;23.302;2023-04-28T01:12:55;9.17;;;3.90;;
70071;SDS011;57434;42.794;23.302;2023-04-28T01:13:57;6.70;;;3.15;;
70071;SDS011;57434;42.794;23.302;2023-04-28T01:14:59;7.85;;;3.72;;
70071;SDS011;57434;42.794;23.302;2023-04-28T01:16:01;8.43;;;3.22;;
70071;SDS011;57434;42.794;23.302;2023-04-28T01:17:03;9.38;;;3.40;;
70071;SDS011;57434;42.794;23.302;2023-04-28T01:18:05;8.52;;;3.63;;
70071;SDS011;57434;42.794;23.302;2023-04-28T01:19:07;6.63;;;3.10;;
70071;SDS011;57434;42.794;23.302;2023-04-28T01:20:22;8.80;;;4.68;;
70071;SDS011;57434;42.794;23.302;2023-04-28T01:21:27;7.90;;;3.25;;
70071;SDS011;57434;42.794;23.302;2023-04-28T01:22:29;7.53;;;3.70;;
70071;SDS011;57434;42.794;23.302;2023-04-28T01:23:31;7.67;;;3.67;;
70071;SDS011;57434;42.794;23.302;2023-04-28T01:24:33;6.95;;;3.00;;
70071;SDS011;57434;42.794;23.302;2023-04-28T01:25:35;9.73;;;3.75;;
70071;SDS011;57434;42.794;23.302;2023-04-28T01:26:37;11.77;;;4.18;;
70071;SDS011;57434;42.794;23.302;2023-04-28T01:27:38;12.43;;;4.60;;
70071;SDS011;57434;42.794;23.302;2023-04-28T01:28:40;10.20;;;4.10;;
70071;SDS011;57434;42.794;23.302;2023-04-28T01:29:42;8.10;;;3.83;;
70071;SDS011;57434;42.794;23.302;2023-04-28T01:30:44;9.93;;;3.80;;
70071;SDS011;57434;42.794;23.302;2023-04-28T01:31:46;10.15;;;3.85;;
70071;SDS011;57434;42.794;23.302;2023-04-28T01:32:48;9.40;;;3.85;;
70071;SDS011;57434;42.794;23.302;2023-04-28T01:33:50;9.77;;;3.70;;
70071;SDS011;57434;42.794;23.302;2023-04-28T01:34:51;9.52;;;3.70;;
70071;SDS011;57434;42.794;23.302;2023-04-28T01:35:56;9.18;;;4.10;;
70071;SDS011;57434;42.794;23.302;2023-04-28T01:36:58;10.63;;;4.10;;
70071;SDS011;57434;42.794;23.302;2023-04-28T01:38:00;8.18;;;4.00;;
70071;SDS011;57434;42.794;23.302;2023-04-28T01:39:02;10.57;;;3.78;;
70071;SDS011;57434;42.794;23.302;2023-04-28T01:40:04;9.57;;;3.97;;
70071;SDS011;57434;42.794;23.302;2023-04-28T01:41:06;11.43;;;3.60;;
70071;SDS011;57434;42.794;23.302;2023-04-28T01:42:08;9.88;;;4.43;;
70071;SDS011;57434;42.794;23.302;2023-04-28T01:43:10;10.45;;;4.18;;
70071;SDS011;57434;42.794;23.302;2023-04-28T01:44:12;10.30;;;4.00;;
70071;SDS011;57434;42.794;23.302;2023-04-28T01:45:14;10.05;;;4.93;;
70071;SDS011;57434;42.794;23.302;2023-04-28T01:46:15;7.25;;;3.55;;
70071;SDS011;57434;42.794;23.302;2023-04-28T01:47:17;8.63;;;4.40;;
70071;SDS011;57434;42.794;23.302;2023-04-28T01:48:28;9.02;;;3.50;;
70071;SDS011;57434;42.794;23.302;2023-04-28T01:49:34;10.07;;;3.53;;
70071;SDS011;57434;42.794;23.302;2023-04-28T01:50:35;9.07;;;3.83;;
70071;SDS011;57434;42.794;23.302;2023-04-28T01:51:37;8.07;;;3.85;;
70071;SDS011;57434;42.794;23.302;2023-04-28T01:52:39;6.80;;;3.75;;
70071;SDS011;57434;42.794;23.302;2023-04-28T01:53:41;11.50;;;4.70;;
70071;SDS011;57434;42.794;23.302;2023-04-28T01:54:43;7.57;;;3.83;;
70071;SDS011;57434;42.794;23.302;2023-04-28T01:55:45;12.18;;;5.25;;
70071;SDS011;57434;42.794;23.302;2023-04-28T01:56:47;11.77;;;4.65;;
70071;SDS011;57434;42.794;23.302;2023-04-28T01:57:49;10.40;;;4.60;;
70071;SDS011;57434;42.794;23.302;2023-04-28T01:58:50;8.95;;;4.60;;
70071;SDS011;57434;42.794;23.302;2023-04-28T01:59:52;11.15;;;4.18;;
70071;SDS011;57434;42.794;23.302;2023-04-28T02:00:54;8.95;;;4.30;;
70071;SDS011;57434;42.794;23.302;2023-04-28T02:01:56;7.50;;;3.88;;
70071;SDS011;57434;42.794;23.302;2023-04-28T02:02:58;8.55;;;4.35;;
70071;SDS011;57434;42.794;23.302;2023-04-28T02:04:00;8.10;;;3.63;;
70071;SDS011;57434;42.794;23.302;2023-04-28T02:05:02;12.80;;;3.83;;
70071;SDS011;57434;42.794;23.302;2023-04-28T02:06:04;10.82;;;4.68;;
70071;SDS011;57434;42.794;23.302;2023-04-28T02:07:06;7.68;;;3.42;;
70071;SDS011;57434;42.794;23.302;2023-04-28T02:08:08;7.95;;;3.42;;
70071;SDS011;57434;42.794;23.302;2023-04-28T02:09:09;8.90;;;3.83;;
70071;SDS011;57434;42.794;23.302;2023-04-28T02:10:11;7.95;;;3.42;;
70071;SDS011;57434;42.794;23.302;2023-04-28T02:11:13;7.25;;;3.47;;
70071;SDS011;57434;42.794;23.302;2023-04-28T02:12:15;6.60;;;3.22;;
70071;SDS011;57434;42.794;23.302;2023-04-28T02:13:17;10.30;;;3.63;;
70071;SDS011;57434;42.794;23.302;2023-04-28T02:14:18;6.75;;;3.00;;
70071;SDS011;57434;42.794;23.302;2023-04-28T02:15:20;9.07;;;3.57;;
70071;SDS011;57434;42.794;23.302;2023-04-28T02:16:22;8.10;;;2.92;;
70071;SDS011;57434;42.794;23.302;2023-04-28T02:17:24;7.10;;;3.17;;
70071;SDS011;57434;42.794;23.302;2023-04-28T02:18:26;7.55;;;3.47;;
70071;SDS011;57434;42.794;23.302;2023-04-28T02:19:28;9.27;;;3.05;;
70071;SDS011;57434;42.794;23.302;2023-04-28T02:20:30;8.05;;;3.67;;
70071;SDS011;57434;42.794;23.302;2023-04-28T02:21:33;8.23;;;2.88;;
70071;SDS011;57434;42.794;23.302;2023-04-28T02:22:35;8.15;;;3.10;;
70071;SDS011;57434;42.794;23.302;2023-04-28T02:23:38;5.80;;;2.42;;
70071;SDS011;57434;42.794;23.302;2023-04-28T02:24:41;8.40;;;2.63;;
70071;SDS011;57434;42.794;23.302;2023-04-28T02:25:42;6.57;;;3.07;;
70071;SDS011;57434;42.794;23.302;2023-04-28T02:26:44;6.55;;;3.63;;
70071;SDS011;57434;42.794;23.302;2023-04-28T02:27:46;8.05;;;3.30;;
70071;SDS011;57434;42.794;23.302;2023-04-28T02:28:48;7.80;;;3.13;;
70071;SDS011;57434;42.794;23.302;2023-04-28T02:29:49;8.30;;;3.75;;
70071;SDS011;57434;42.794;23.302;2023-04-28T02:30:51;10.60;;;5.75;;
70071;SDS011;57434;42.794;23.302;2023-04-28T02:31:53;9.52;;;5.18;;
70071;SDS011;57434;42.794;23.302;2023-04-28T02:32:55;9.80;;;4.40;;
70071;SDS011;57434;42.794;23.302;2023-04-28T02:33:57;12.15;;;4.43;;
70071;SDS011;57434;42.794;23.302;2023-04-28T02:34:59;10.80;;;4.28;;
70071;SDS011;57434;42.794;23.302;2023-04-28T02:36:01;11.53;;;4.17;;
70071;SDS011;57434;42.794;23.302;2023-04-28T02:37:04;9.38;;;3.67;;
70071;SDS011;57434;42.794;23.302;2023-04-28T02:38:06;7.57;;;3.72;;
70071;SDS011;57434;42.794;23.302;2023-04-28T02:39:07;8.73;;;3.13;;
70071;SDS011;57434;42.794;23.302;2023-04-28T02:40:10;8.40;;;3.20;;
70071;SDS011;57434;42.794;23.302;2023-04-28T02:41:12;9.05;;;3.45;;
70071;SDS011;57434;42.794;23.302;2023-04-28T02:42:14;9.25;;;3.42;;
70071;SDS011;57434;42.794;23.302;2023-04-28T02:43:16;6.22;;;3.03;;
70071;SDS011;57434;42.794;23.302;2023-04-28T02:44:18;10.77;;;3.15;;
70071;SDS011;57434;42.794;23.302;2023-04-28T02:45:20;7.53;;;3.35;;
70071;SDS011;57434;42.794;23.302;2023-04-28T02:46:22;8.53;;;3.40;;
70071;SDS011;57434;42.794;23.302;2023-04-28T02:47:24;6.70;;;3.25;;
70071;SDS011;57434;42.794;23.302;2023-04-28T02:48:26;9.75;;;3.65;;
70071;SDS011;57434;42.794;23.302;2023-04-28T02:49:28;9.10;;;3.15;;
70071;SDS011;57434;42.794;23.302;2023-04-28T02:50:30;7.22;;;3.28;;
70071;SDS011;57434;42.794;23.302;2023-04-28T02:51:31;7.05;;;2.92;;
70071;SDS011;57434;42.794;23.302;2023-04-28T02:52:33;7.78;;;3.70;;
70071;SDS011;57434;42.794;23.302;2023-04-28T02:53:35;6.70;;;2.78;;
70071;SDS011;57434;42.794;23.302;2023-04-28T02:54:37;6.45;;;2.80;;
70071;SDS011;57434;42.794;23.302;2023-04-28T02:55:39;7.30;;;2.90;;
70071;SDS011;57434;42.794;23.302;2023-04-28T02:56:41;10.07;;;3.27;;
70071;SDS011;57434;42.794;23.302;2023-04-28T02:57:42;7.95;;;2.70;;
70071;SDS011;57434;42.794;23.302;2023-04-28T02:58:44;7.57;;;2.88;;
70071;SDS011;57434;42.794;23.302;2023-04-28T02:59:46;8.10;;;2.83;;
70071;SDS011;57434;42.794;23.302;2023-04-28T03:00:48;8.65;;;2.90;;
70071;SDS011;57434;42.794;23.302;2023-04-28T03:01:50;7.85;;;2.90;;
70071;SDS011;57434;42.794;23.302;2023-04-28T03:02:52;7.85;;;3.00;;
70071;SDS011;57434;42.794;23.302;2023-04-28T03:03:54;7.20;;;2.83;;
70071;SDS011;57434;42.794;23.302;2023-04-28T03:04:56;7.65;;;3.00;;
70071;SDS011;57434;42.794;23.302;2023-04-28T03:05:58;6.53;;;3.13;;
70071;SDS011;57434;42.794;23.302;2023-04-28T03:07:00;7.53;;;2.40;;
70071;SDS011;57434;42.794;23.302;2023-04-28T03:08:02;5.60;;;2.33;;
70071;SDS011;57434;42.794;23.302;2023-04-28T03:09:04;5.97;;;2.55;;
70071;SDS011;57434;42.794;23.302;2023-04-28T03:10:06;7.47;;;3.25;;
70071;SDS011;57434;42.794;23.302;2023-04-28T03:11:08;5.57;;;2.45;;
70071;SDS011;57434;42.794;23.302;2023-04-28T03:12:10;6.32;;;2.40;;
70071;SDS011;57434;42.794;23.302;2023-04-28T03:13:12;8.02;;;2.83;;
70071;SDS011;57434;42.794;23.302;2023-04-28T03:14:14;9.35;;;2.70;;
70071;SDS011;57434;42.794;23.302;2023-04-28T03:15:17;8.75;;;3.67;;
70071;SDS011;57434;42.794;23.302;2023-04-28T03:16:18;8.25;;;3.40;;
70071;SDS011;57434;42.794;23.302;2023-04-28T03:17:20;10.93;;;3.60;;
70071;SDS011;57434;42.794;23.302;2023-04-28T03:18:22;10.38;;;3.50;;
70071;SDS011;57434;42.794;23.302;2023-04-28T03:19:24;6.22;;;3.47;;
70071;SDS011;57434;42.794;23.302;2023-04-28T03:20:26;7.05;;;3.33;;
70071;SDS011;57434;42.794;23.302;2023-04-28T03:21:28;7.88;;;3.00;;
70071;SDS011;57434;42.794;23.302;2023-04-28T03:22:29;8.80;;;3.25;;
70071;SDS011;57434;42.794;23.302;2023-04-28T03:23:31;10.00;;;3.15;;
70071;SDS011;57434;42.794;23.302;2023-04-28T03:24:33;11.45;;;3.35;;
70071;SDS011;57434;42.794;23.302;2023-04-28T03:25:35;7.53;;;2.83;;
70071;SDS011;57434;42.794;23.302;2023-04-28T03:26:37;7.78;;;3.00;;
70071;SDS011;57434;42.794;23.302;2023-04-28T03:27:39;6.80;;;2.63;;
70071;SDS011;57434;42.794;23.302;2023-04-28T03:28:41;10.13;;;3.15;;
70071;SDS011;57434;42.794;23.302;2023-04-28T03:29:42;7.80;;;3.38;;
70071;SDS011;57434;42.794;23.302;2023-04-28T03:30:44;9.65;;;3.33;;
70071;SDS011;57434;42.794;23.302;2023-04-28T03:31:46;5.80;;;2.50;;
70071;SDS011;57434;42.794;23.302;2023-04-28T03:32:48;8.75;;;2.80;;
70071;SDS011;57434;42.794;23.302;2023-04-28T03:33:50;6.75;;;2.75;;
70071;SDS011;57434;42.794;23.302;2023-04-28T03:34:52;10.80;;;3.30;;
70071;SDS011;57434;42.794;23.302;2023-04-28T03:35:53;5.10;;;2.45;;
70071;SDS011;57434;42.794;23.302;2023-04-28T03:36:55;6.10;;;2.63;;
70071;SDS011;57434;42.794;23.302;2023-04-28T03:37:57;6.07;;;1.93;;
70071;SDS011;57434;42.794;23.302;2023-04-28T03:38:59;5.38;;;1.92;;
70071;SDS011;57434;42.794;23.302;2023-04-28T03:40:01;5.32;;;2.30;;
70071;SDS011;57434;42.794;23.302;2023-04-28T03:41:03;5.72;;;2.40;;
70071;SDS011;57434;42.794;23.302;2023-04-28T03:42:04;5.10;;;2.10;;
70071;SDS011;57434;42.794;23.302;2023-04-28T03:43:06;5.90;;;2.10;;
70071;SDS011;57434;42.794;23.302;2023-04-28T03:44:08;5.22;;;1.90;;
70071;SDS011;57434;42.794;23.302;2023-04-28T03:45:10;6.18;;;2.08;;
70071;SDS011;57434;42.794;23.302;2023-04-28T03:46:11;6.43;;;2.45;;
70071;SDS011;57434;42.794;23.302;2023-04-28T03:47:13;11.98;;;2.20;;
70071;SDS011;57434;42.794;23.302;2023-04-28T03:48:15;7.00;;;2.10;;
70071;SDS011;57434;42.794;23.302;2023-04-28T03:49:17;4.82;;;1.90;;
70071;SDS011;57434;42.794;23.302;2023-04-28T03:50:19;9.23;;;2.05;;
70071;SDS011;57434;42.794;23.302;2023-04-28T03:51:21;4.15;;;1.63;;
70071;SDS011;57434;42.794;23.302;2023-04-28T03:52:23;6.10;;;2.10;;
70071;SDS011;57434;42.794;23.302;2023-04-28T03:53:25;6.22;;;2.15;;
70071;SDS011;57434;42.794;23.302;2023-04-28T03:54:27;4.78;;;1.98;;
70071;SDS011;57434;42.794;23.302;2023-04-28T03:55:29;5.38;;;1.95;;
70071;SDS011;57434;42.794;23.302;2023-04-28T03:56:31;5.57;;;1.85;;
70071;SDS011;57434;42.794;23.302;2023-04-28T03:57:33;4.93;;;1.85;;
70071;SDS011;57434;42.794;23.302;2023-04-28T03:58:34;6.47;;;2.20;;
70071;SDS011;57434;42.794;23.302;2023-04-28T03:59:36;5.50;;;1.77;;
70071;SDS011;57434;42.794;23.302;2023-04-28T04:00:38;5.60;;;1.95;;
70071;SDS011;57434;42.794;23.302;2023-04-28T04:01:40;5.57;;;2.15;;
70071;SDS011;57434;42.794;23.302;2023-04-28T04:02:42;6.18;;;1.80;;
70071;SDS011;57434;42.794;23.302;2023-04-28T04:03:44;6.57;;;2.38;;
70071;SDS011;57434;42.794;23.302;2023-04-28T04:04:46;5.68;;;2.30;;
70071;SDS011;57434;42.794;23.302;2023-04-28T04:05:48;7.53;;;2.38;;
70071;SDS011;57434;42.794;23.302;2023-04-28T04:06:50;6.88;;;2.22;;
70071;SDS011;57434;42.794;23.302;2023-04-28T04:07:52;5.50;;;2.35;;
70071;SDS011;57434;42.794;23.302;2023-04-28T04:08:54;5.97;;;2.20;;
70071;SDS011;57434;42.794;23.302;2023-04-28T04:09:56;5.65;;;2.63;;
70071;SDS011;57434;42.794;23.302;2023-04-28T04:10:58;7.68;;;2.80;;
70071;SDS011;57434;42.794;23.302;2023-04-28T04:12:00;6.45;;;2.60;;
70071;SDS011;57434;42.794;23.302;2023-04-28T04:13:02;6.05;;;2.55;;
70071;SDS011;57434;42.794;23.302;2023-04-28T04:14:03;7.10;;;2.90;;
70071;SDS011;57434;42.794;23.302;2023-04-28T04:15:05;8.07;;;2.75;;
70071;SDS011;57434;42.794;23.302;2023-04-28T04:16:08;4.97;;;2.20;;
70071;SDS011;57434;42.794;23.302;2023-04-28T04:17:10;4.95;;;2.25;;
70071;SDS011;57434;42.794;23.302;2023-04-28T04:18:11;6.30;;;2.33;;
70071;SDS011;57434;42.794;23.302;2023-04-28T04:19:13;6.07;;;2.20;;
70071;SDS011;57434;42.794;23.302;2023-04-28T04:20:15;7.30;;;2.28;;
70071;SDS011;57434;42.794;23.302;2023-04-28T04:21:17;6.03;;;2.28;;
70071;SDS011;57434;42.794;23.302;2023-04-28T04:22:19;4.93;;;1.90;;
70071;SDS011;57434;42.794;23.302;2023-04-28T04:23:21;5.20;;;2.13;;
70071;SDS011;57434;42.794;23.302;2023-04-28T04:24:23;5.35;;;2.08;;
70071;SDS011;57434;42.794;23.302;2023-04-28T04:25:25;4.22;;;1.88;;
70071;SDS011;57434;42.794;23.302;2023-04-28T04:26:26;5.53;;;2.03;;
70071;SDS011;57434;42.794;23.302;2023-04-28T04:27:28;5.28;;;2.20;;
70071;SDS011;57434;42.794;23.302;2023-04-28T04:28:30;9.65;;;3.90;;
70071;SDS011;57434;42.794;23.302;2023-04-28T04:29:32;124.53;;;35.17;;
70071;SDS011;57434;42.794;23.302;2023-04-28T04:30:33;86.78;;;25.15;;
70071;SDS011;57434;42.794;23.302;2023-04-28T04:31:35;37.05;;;11.65;;
70071;SDS011;57434;42.794;23.302;2023-04-28T04:32:37;71.50;;;35.30;;
70071;SDS011;57434;42.794;23.302;2023-04-28T04:33:39;13.63;;;5.88;;
70071;SDS011;57434;42.794;23.302;2023-04-28T04:34:41;11.20;;;4.38;;
70071;SDS011;57434;42.794;23.302;2023-04-28T04:35:43;11.80;;;4.60;;
70071;SDS011;57434;42.794;23.302;2023-04-28T04:36:45;13.20;;;5.88;;
70071;SDS011;57434;42.794;23.302;2023-04-28T04:37:47;14.35;;;5.22;;
70071;SDS011;57434;42.794;23.302;2023-04-28T04:38:48;11.70;;;3.65;;
70071;SDS011;57434;42.794;23.302;2023-04-28T04:39:52;8.20;;;3.47;;
70071;SDS011;57434;42.794;23.302;2023-04-28T04:40:53;9.23;;;3.15;;
70071;SDS011;57434;42.794;23.302;2023-04-28T04:41:55;8.52;;;3.60;;
70071;SDS011;57434;42.794;23.302;2023-04-28T04:42:57;7.72;;;2.78;;
70071;SDS011;57434;42.794;23.302;2023-04-28T04:43:59;15.10;;;3.72;;
70071;SDS011;57434;42.794;23.302;2023-04-28T04:45:01;9.65;;;3.10;;
70071;SDS011;57434;42.794;23.302;2023-04-28T04:46:03;6.72;;;3.08;;
70071;SDS011;57434;42.794;23.302;2023-04-28T04:47:05;7.45;;;3.13;;
70071;SDS011;57434;42.794;23.302;2023-04-28T04:48:07;7.13;;;2.42;;
70071;SDS011;57434;42.794;23.302;2023-04-28T04:49:08;7.20;;;3.47;;
70071;SDS011;57434;42.794;23.302;2023-04-28T04:50:10;7.17;;;3.23;;
70071;SDS011;57434;42.794;23.302;2023-04-28T04:51:13;7.45;;;3.00;;
70071;SDS011;57434;42.794;23.302;2023-04-28T04:52:14;11.65;;;4.47;;
70071;SDS011;57434;42.794;23.302;2023-04-28T04:53:16;8.07;;;4.05;;
70071;SDS011;57434;42.794;23.302;2023-04-28T04:54:18;11.55;;;5.10;;
70071;SDS011;57434;42.794;23.302;2023-04-28T04:55:20;11.63;;;4.65;;
70071;SDS011;57434;42.794;23.302;2023-04-28T04:56:22;8.00;;;3.60;;
70071;SDS011;57434;42.794;23.302;2023-04-28T04:57:23;11.80;;;4.40;;
70071;SDS011;57434;42.794;23.302;2023-04-28T04:58:25;8.80;;;4.40;;
70071;SDS011;57434;42.794;23.302;2023-04-28T04:59:27;7.80;;;3.50;;
70071;SDS011;57434;42.794;23.302;2023-04-28T05:00:29;8.83;;;4.20;;
70071;SDS011;57434;42.794;23.302;2023-04-28T05:01:31;8.73;;;4.13;;
70071;SDS011;57434;42.794;23.302;2023-04-28T05:02:33;8.23;;;3.72;;
70071;SDS011;57434;42.794;23.302;2023-04-28T05:03:35;8.32;;;4.32;;
70071;SDS011;57434;42.794;23.302;2023-04-28T05:04:37;10.25;;;4.00;;
70071;SDS011;57434;42.794;23.302;2023-04-28T05:05:39;7.82;;;3.67;;
70071;SDS011;57434;42.794;23.302;2023-04-28T05:06:42;10.23;;;3.95;;
70071;SDS011;57434;42.794;23.302;2023-04-28T05:07:45;6.45;;;3.17;;
70071;SDS011;57434;42.794;23.302;2023-04-28T05:08:46;8.32;;;3.30;;
70071;SDS011;57434;42.794;23.302;2023-04-28T05:09:48;7.38;;;3.50;;
70071;SDS011;57434;42.794;23.302;2023-04-28T05:10:50;9.93;;;3.40;;
70071;SDS011;57434;42.794;23.302;2023-04-28T05:11:52;8.25;;;3.67;;
70071;SDS011;57434;42.794;23.302;2023-04-28T05:12:54;8.75;;;3.30;;
70071;SDS011;57434;42.794;23.302;2023-04-28T05:13:55;6.95;;;3.20;;
70071;SDS011;57434;42.794;23.302;2023-04-28T05:14:57;8.43;;;3.60;;
70071;SDS011;57434;42.794;23.302;2023-04-28T05:15:59;9.55;;;3.85;;
70071;SDS011;57434;42.794;23.302;2023-04-28T05:17:01;9.35;;;4.07;;
70071;SDS011;57434;42.794;23.302;2023-04-28T05:18:02;7.95;;;3.75;;
70071;SDS011;57434;42.794;23.302;2023-04-28T05:19:04;9.63;;;4.40;;
70071;SDS011;57434;42.794;23.302;2023-04-28T05:20:06;8.75;;;3.40;;
70071;SDS011;57434;42.794;23.302;2023-04-28T05:21:09;7.97;;;4.10;;
70071;SDS011;57434;42.794;23.302;2023-04-28T05:22:11;9.63;;;3.85;;
70071;SDS011;57434;42.794;23.302;2023-04-28T05:23:13;8.60;;;4.30;;
70071;SDS011;57434;42.794;23.302;2023-04-28T05:24:15;14.55;;;7.68;;
70071;SDS011;57434;42.794;23.302;2023-04-28T05:25:17;12.27;;;5.15;;
70071;SDS011;57434;42.794;23.302;2023-04-28T05:26:19;18.13;;;8.60;;
70071;SDS011;57434;42.794;23.302;2023-04-28T05:27:21;10.55;;;4.72;;
70071;SDS011;57434;42.794;23.302;2023-04-28T05:28:23;12.40;;;4.60;;
70071;SDS011;57434;42.794;23.302;2023-04-28T05:29:25;13.45;;;4.60;;
70071;SDS011;57434;42.794;23.302;2023-04-28T05:30:26;10.70;;;4.40;;
70071;SDS011;57434;42.794;23.302;2023-04-28T05:31:28;12.57;;;4.33;;
70071;SDS011;57434;42.794;23.302;2023-04-28T05:32:30;10.98;;;4.95;;
70071;SDS011;57434;42.794;23.302;2023-04-28T05:33:32;12.43;;;5.60;;
70071;SDS011;57434;42.794;23.302;2023-04-28T05:34:34;13.40;;;5.47;;
70071;SDS011;57434;42.794;23.302;2023-04-28T05:35:36;8.70;;;4.53;;
70071;SDS011;57434;42.794;23.302;2023-04-28T05:36:37;12.57;;;4.72;;
70071;SDS011;57434;42.794;23.302;2023-04-28T05:37:39;10.63;;;4.25;;
70071;SDS011;57434;42.794;23.302;2023-04-28T05:38:42;12.10;;;4.53;;
70071;SDS011;57434;42.794;23.302;2023-04-28T05:39:44;11.18;;;4.53;;
70071;SDS011;57434;42.794;23.302;2023-04-28T05:40:46;10.80;;;4.30;;
70071;SDS011;57434;42.794;23.302;2023-04-28T05:41:48;10.63;;;4.10;;
70071;SDS011;57434;42.794;23.302;2023-04-28T05:42:49;9.18;;;4.45;;
70071;SDS011;57434;42.794;23.302;2023-04-28T05:43:51;10.20;;;4.40;;
70071;SDS011;57434;42.794;23.302;2023-04-28T05:44:53;10.00;;;4.57;;
70071;SDS011;57434;42.794;23.302;2023-04-28T05:45:55;11.60;;;4.63;;
70071;SDS011;57434;42.794;23.302;2023-04-28T05:46:57;10.10;;;4.30;;
70071;SDS011;57434;42.794;23.302;2023-04-28T05:47:59;10.88;;;4.47;;
70071;SDS011;57434;42.794;23.302;2023-04-28T05:49:00;9.30;;;4.22;;
70071;SDS011;57434;42.794;23.302;2023-04-28T05:50:02;9.45;;;4.13;;
70071;SDS011;57434;42.794;23.302;2023-04-28T05:51:04;8.15;;;4.40;;
70071;SDS011;57434;42.794;23.302;2023-04-28T05:52:06;9.40;;;4.50;;
70071;SDS011;57434;42.794;23.302;2023-04-28T05:53:08;12.10;;;4.20;;
70071;SDS011;57434;42.794;23.302;2023-04-28T05:54:10;8.68;;;3.83;;
70071;SDS011;57434;42.794;23.302;2023-04-28T05:55:12;8.35;;;4.28;;
70071;SDS011;57434;42.794;23.302;2023-04-28T05:56:14;6.55;;;3.25;;
70071;SDS011;57434;42.794;23.302;2023-04-28T05:57:16;12.00;;;3.65;;
70071;SDS011;57434;42.794;23.302;2023-04-28T05:58:18;8.63;;;3.45;;
70071;SDS011;57434;42.794;23.302;2023-04-28T05:59:20;8.02;;;3.88;;
70071;SDS011;57434;42.794;23.302;2023-04-28T06:00:22;10.65;;;3.53;;
70071;SDS011;57434;42.794;23.302;2023-04-28T06:01:23;17.35;;;4.15;;
70071;SDS011;57434;42.794;23.302;2023-04-28T06:02:25;7.97;;;2.80;;
70071;SDS011;57434;42.794;23.302;2023-04-28T06:03:28;6.75;;;2.60;;
70071;SDS011;57434;42.794;23.302;2023-04-28T06:04:30;6.97;;;2.55;;
70071;SDS011;57434;42.794;23.302;2023-04-28T06:05:32;5.35;;;2.00;;
70071;SDS011;57434;42.794;23.302;2023-04-28T06:06:34;5.88;;;1.88;;